sensor_id;sensor_type;location;lat;lon;timestamp;P1;durP1;ratioP1;P2;durP2;ratioP2
72117;SDS011;59992;47.490;8.736;2022-10-20T00:02:31;13.30;;;6.40;;
72117;SDS011;59992;47.490;8.736;2022-10-20T00:05:19;24.30;;;6.10;;
72117;SDS011;59992;47.490;8.736;2022-10-20T00:08:08;12.20;;;6.10;;
72117;SDS011;59992;47.490;8.736;2022-10-20T00:10:56;10.70;;;6.60;;
72117;SDS011;59992;47.490;8.736;2022-10-20T00:13:45;14.20;;;6.20;;
72117;SDS011;59992;47.490;8.736;2022-10-20T00:16:34;18.40;;;6.40;;
72117;SDS011;59992;47.490;8.736;2022-10-20T00:19:24;13.50;;;6.60;;
72117;SDS011;59992;47.490;8.736;2022-10-20T00:22:13;11.70;;;6.20;;
72117;SDS011;59992;47.490;8.736;2022-10-20T00:25:01;14.40;;;7.20;;
72117;SDS011;59992;47.490;8.736;2022-10-20T00:27:49;12.00;;;6.50;;
72117;SDS011;59992;47.490;8.736;2022-10-20T00:30:38;15.30;;;6.20;;
72117;SDS011;59992;47.490;8.736;2022-10-20T00:33:27;14.40;;;7.30;;
72117;SDS011;59992;47.490;8.736;2022-10-20T00:36:16;15.00;;;7.10;;
72117;SDS011;59992;47.490;8.736;2022-10-20T00:39:05;12.30;;;6.00;;
72117;SDS011;59992;47.490;8.736;2022-10-20T00:41:53;18.20;;;7.20;;
72117;SDS011;59992;47.490;8.736;2022-10-20T00:44:46;13.90;;;6.40;;
72117;SDS011;59992;47.490;8.736;2022-10-20T00:47:39;12.80;;;6.00;;
72117;SDS011;59992;47.490;8.736;2022-10-20T00:50:32;13.10;;;6.50;;
72117;SDS011;59992;47.490;8.736;2022-10-20T00:53:28;16.40;;;7.00;;
72117;SDS011;59992;47.490;8.736;2022-10-20T00:56:16;12.70;;;6.40;;
72117;SDS011;59992;47.490;8.736;2022-10-20T00:59:05;20.90;;;8.30;;
72117;SDS011;59992;47.490;8.736;2022-10-20T01:01:54;14.60;;;7.40;;
72117;SDS011;59992;47.490;8.736;2022-10-20T01:04:42;15.90;;;8.50;;
72117;SDS011;59992;47.490;8.736;2022-10-20T01:07:30;19.60;;;8.50;;
72117;SDS011;59992;47.490;8.736;2022-10-20T01:10:19;18.20;;;8.70;;
72117;SDS011;59992;47.490;8.736;2022-10-20T01:13:10;15.60;;;8.20;;
72117;SDS011;59992;47.490;8.736;2022-10-20T01:16:02;15.80;;;8.10;;
72117;SDS011;59992;47.490;8.736;2022-10-20T01:19:00;15.90;;;7.60;;
72117;SDS011;59992;47.490;8.736;2022-10-20T01:22:01;15.50;;;7.30;;
72117;SDS011;59992;47.490;8.736;2022-10-20T01:25:13;15.60;;;7.10;;
72117;SDS011;59992;47.490;8.736;2022-10-20T01:28:08;12.10;;;6.50;;
72117;SDS011;59992;47.490;8.736;2022-10-20T01:31:02;17.00;;;6.90;;
72117;SDS011;59992;47.490;8.736;2022-10-20T01:34:01;18.00;;;6.60;;
72117;SDS011;59992;47.490;8.736;2022-10-20T01:36:56;20.80;;;6.60;;
72117;SDS011;59992;47.490;8.736;2022-10-20T01:39:49;15.50;;;6.90;;
72117;SDS011;59992;47.490;8.736;2022-10-20T01:42:40;14.40;;;7.40;;
72117;SDS011;59992;47.490;8.736;2022-10-20T01:45:31;14.90;;;8.00;;
72117;SDS011;59992;47.490;8.736;2022-10-20T01:48:23;18.80;;;9.70;;
72117;SDS011;59992;47.490;8.736;2022-10-20T01:51:15;18.90;;;11.80;;
72117;SDS011;59992;47.490;8.736;2022-10-20T01:54:03;25.00;;;11.60;;
72117;SDS011;59992;47.490;8.736;2022-10-20T01:56:54;17.30;;;10.60;;
72117;SDS011;59992;47.490;8.736;2022-10-20T01:59:54;22.10;;;11.60;;
72117;SDS011;59992;47.490;8.736;2022-10-20T02:03:04;22.60;;;11.30;;
72117;SDS011;59992;47.490;8.736;2022-10-20T02:06:07;23.30;;;12.10;;
72117;SDS011;59992;47.490;8.736;2022-10-20T02:09:06;19.50;;;11.30;;
72117;SDS011;59992;47.490;8.736;2022-10-20T02:11:59;19.70;;;11.20;;
72117;SDS011;59992;47.490;8.736;2022-10-20T02:14:51;22.20;;;12.20;;
72117;SDS011;59992;47.490;8.736;2022-10-20T02:17:40;23.10;;;12.60;;
72117;SDS011;59992;47.490;8.736;2022-10-20T02:20:31;20.20;;;11.30;;
72117;SDS011;59992;47.490;8.736;2022-10-20T02:23:20;21.60;;;12.10;;
72117;SDS011;59992;47.490;8.736;2022-10-20T02:26:11;21.70;;;11.60;;
72117;SDS011;59992;47.490;8.736;2022-10-20T02:29:03;23.10;;;12.40;;
72117;SDS011;59992;47.490;8.736;2022-10-20T02:32:01;22.70;;;12.30;;
72117;SDS011;59992;47.490;8.736;2022-10-20T02:34:50;23.50;;;12.70;;
72117;SDS011;59992;47.490;8.736;2022-10-20T02:37:38;23.60;;;13.10;;
72117;SDS011;59992;47.490;8.736;2022-10-20T02:40:27;23.50;;;11.90;;
72117;SDS011;59992;47.490;8.736;2022-10-20T02:43:15;21.50;;;12.00;;
72117;SDS011;59992;47.490;8.736;2022-10-20T02:46:03;25.60;;;12.20;;
72117;SDS011;59992;47.490;8.736;2022-10-20T02:48:52;19.40;;;11.60;;
72117;SDS011;59992;47.490;8.736;2022-10-20T02:51:40;34.60;;;12.60;;
72117;SDS011;59992;47.490;8.736;2022-10-20T02:54:29;22.30;;;11.80;;
72117;SDS011;59992;47.490;8.736;2022-10-20T02:57:17;25.90;;;12.70;;
72117;SDS011;59992;47.490;8.736;2022-10-20T03:00:07;29.00;;;12.40;;
72117;SDS011;59992;47.490;8.736;2022-10-20T03:02:56;26.50;;;12.80;;
72117;SDS011;59992;47.490;8.736;2022-10-20T03:05:45;23.30;;;11.80;;
72117;SDS011;59992;47.490;8.736;2022-10-20T03:08:33;22.10;;;12.00;;
72117;SDS011;59992;47.490;8.736;2022-10-20T03:11:21;23.90;;;12.00;;
72117;SDS011;59992;47.490;8.736;2022-10-20T03:14:09;19.20;;;11.60;;
72117;SDS011;59992;47.490;8.736;2022-10-20T03:16:57;25.60;;;12.20;;
72117;SDS011;59992;47.490;8.736;2022-10-20T03:19:45;22.60;;;12.30;;
72117;SDS011;59992;47.490;8.736;2022-10-20T03:22:33;19.50;;;11.40;;
72117;SDS011;59992;47.490;8.736;2022-10-20T03:25:21;22.90;;;11.40;;
72117;SDS011;59992;47.490;8.736;2022-10-20T03:28:10;22.10;;;12.00;;
72117;SDS011;59992;47.490;8.736;2022-10-20T03:30:58;22.70;;;11.70;;
72117;SDS011;59992;47.490;8.736;2022-10-20T03:33:46;20.10;;;12.20;;
72117;SDS011;59992;47.490;8.736;2022-10-20T03:36:34;23.20;;;12.20;;
72117;SDS011;59992;47.490;8.736;2022-10-20T03:39:22;23.40;;;12.20;;
72117;SDS011;59992;47.490;8.736;2022-10-20T03:42:10;21.40;;;12.10;;
72117;SDS011;59992;47.490;8.736;2022-10-20T03:44:58;22.40;;;12.50;;
72117;SDS011;59992;47.490;8.736;2022-10-20T03:47:47;17.00;;;9.90;;
72117;SDS011;59992;47.490;8.736;2022-10-20T03:50:37;25.60;;;10.60;;
72117;SDS011;59992;47.490;8.736;2022-10-20T03:53:25;27.90;;;10.00;;
72117;SDS011;59992;47.490;8.736;2022-10-20T03:56:14;21.30;;;10.10;;
72117;SDS011;59992;47.490;8.736;2022-10-20T03:59:04;27.10;;;10.00;;
72117;SDS011;59992;47.490;8.736;2022-10-20T04:01:53;19.60;;;9.50;;
72117;SDS011;59992;47.490;8.736;2022-10-20T04:04:41;18.00;;;9.50;;
72117;SDS011;59992;47.490;8.736;2022-10-20T04:07:29;22.90;;;9.10;;
72117;SDS011;59992;47.490;8.736;2022-10-20T04:10:18;27.10;;;10.10;;
72117;SDS011;59992;47.490;8.736;2022-10-20T04:13:06;19.10;;;9.50;;
72117;SDS011;59992;47.490;8.736;2022-10-20T04:15:54;25.50;;;10.70;;
72117;SDS011;59992;47.490;8.736;2022-10-20T04:18:43;20.90;;;10.60;;
72117;SDS011;59992;47.490;8.736;2022-10-20T04:21:31;22.50;;;10.00;;
72117;SDS011;59992;47.490;8.736;2022-10-20T04:24:19;16.90;;;9.40;;
72117;SDS011;59992;47.490;8.736;2022-10-20T04:27:08;20.30;;;9.30;;
72117;SDS011;59992;47.490;8.736;2022-10-20T04:29:56;18.30;;;9.70;;
72117;SDS011;59992;47.490;8.736;2022-10-20T04:32:44;21.80;;;9.50;;
72117;SDS011;59992;47.490;8.736;2022-10-20T04:35:32;22.00;;;9.70;;
72117;SDS011;59992;47.490;8.736;2022-10-20T04:38:21;25.50;;;10.10;;
72117;SDS011;59992;47.490;8.736;2022-10-20T04:41:09;19.00;;;9.10;;
72117;SDS011;59992;47.490;8.736;2022-10-20T04:43:57;18.10;;;9.50;;
72117;SDS011;59992;47.490;8.736;2022-10-20T04:46:45;24.30;;;9.90;;
72117;SDS011;59992;47.490;8.736;2022-10-20T04:49:33;17.50;;;9.50;;
72117;SDS011;59992;47.490;8.736;2022-10-20T04:52:21;19.40;;;9.10;;
72117;SDS011;59992;47.490;8.736;2022-10-20T04:55:09;21.30;;;10.90;;
72117;SDS011;59992;47.490;8.736;2022-10-20T04:57:58;21.20;;;11.00;;
72117;SDS011;59992;47.490;8.736;2022-10-20T05:00:46;19.00;;;10.00;;
72117;SDS011;59992;47.490;8.736;2022-10-20T05:03:34;25.80;;;10.60;;
72117;SDS011;59992;47.490;8.736;2022-10-20T05:06:23;20.70;;;10.50;;
72117;SDS011;59992;47.490;8.736;2022-10-20T05:09:13;21.70;;;9.80;;
72117;SDS011;59992;47.490;8.736;2022-10-20T05:12:01;19.50;;;10.50;;
72117;SDS011;59992;47.490;8.736;2022-10-20T05:14:49;23.30;;;10.60;;
72117;SDS011;59992;47.490;8.736;2022-10-20T05:17:37;19.10;;;10.90;;
72117;SDS011;59992;47.490;8.736;2022-10-20T05:20:25;22.30;;;11.20;;
72117;SDS011;59992;47.490;8.736;2022-10-20T05:23:14;31.90;;;11.40;;
72117;SDS011;59992;47.490;8.736;2022-10-20T05:26:03;21.60;;;10.10;;
72117;SDS011;59992;47.490;8.736;2022-10-20T05:28:52;22.50;;;10.40;;
72117;SDS011;59992;47.490;8.736;2022-10-20T05:31:40;24.40;;;11.20;;
72117;SDS011;59992;47.490;8.736;2022-10-20T05:34:29;24.40;;;10.70;;
72117;SDS011;59992;47.490;8.736;2022-10-20T05:37:17;21.60;;;11.20;;
72117;SDS011;59992;47.490;8.736;2022-10-20T05:40:07;26.60;;;11.40;;
72117;SDS011;59992;47.490;8.736;2022-10-20T05:42:56;22.00;;;10.90;;
72117;SDS011;59992;47.490;8.736;2022-10-20T05:45:45;23.80;;;10.90;;
72117;SDS011;59992;47.490;8.736;2022-10-20T05:48:39;28.60;;;11.30;;
72117;SDS011;59992;47.490;8.736;2022-10-20T05:51:27;21.70;;;10.40;;
72117;SDS011;59992;47.490;8.736;2022-10-20T05:54:18;19.30;;;10.50;;
72117;SDS011;59992;47.490;8.736;2022-10-20T05:57:06;20.10;;;10.00;;
72117;SDS011;59992;47.490;8.736;2022-10-20T05:59:54;21.60;;;11.10;;
72117;SDS011;59992;47.490;8.736;2022-10-20T06:02:42;22.40;;;11.20;;
72117;SDS011;59992;47.490;8.736;2022-10-20T06:05:30;22.30;;;11.90;;
72117;SDS011;59992;47.490;8.736;2022-10-20T06:08:18;21.00;;;11.30;;
72117;SDS011;59992;47.490;8.736;2022-10-20T06:11:07;23.40;;;13.20;;
72117;SDS011;59992;47.490;8.736;2022-10-20T06:13:57;26.80;;;13.90;;
72117;SDS011;59992;47.490;8.736;2022-10-20T06:16:45;29.50;;;13.20;;
72117;SDS011;59992;47.490;8.736;2022-10-20T06:19:37;26.20;;;12.70;;
72117;SDS011;59992;47.490;8.736;2022-10-20T06:22:25;23.20;;;13.00;;
72117;SDS011;59992;47.490;8.736;2022-10-20T06:25:14;23.80;;;12.00;;
72117;SDS011;59992;47.490;8.736;2022-10-20T06:28:02;25.00;;;13.20;;
72117;SDS011;59992;47.490;8.736;2022-10-20T06:30:50;23.70;;;12.20;;
72117;SDS011;59992;47.490;8.736;2022-10-20T06:33:38;25.80;;;12.80;;
72117;SDS011;59992;47.490;8.736;2022-10-20T06:36:26;25.30;;;13.40;;
72117;SDS011;59992;47.490;8.736;2022-10-20T06:39:16;21.40;;;11.60;;
72117;SDS011;59992;47.490;8.736;2022-10-20T06:42:06;25.90;;;13.40;;
72117;SDS011;59992;47.490;8.736;2022-10-20T06:44:54;26.50;;;12.90;;
72117;SDS011;59992;47.490;8.736;2022-10-20T06:47:42;26.60;;;13.20;;
72117;SDS011;59992;47.490;8.736;2022-10-20T06:50:31;24.40;;;12.20;;
72117;SDS011;59992;47.490;8.736;2022-10-20T06:53:19;24.40;;;12.70;;
72117;SDS011;59992;47.490;8.736;2022-10-20T06:56:09;25.60;;;12.60;;
72117;SDS011;59992;47.490;8.736;2022-10-20T06:58:59;23.90;;;13.10;;
72117;SDS011;59992;47.490;8.736;2022-10-20T07:01:48;28.00;;;12.60;;
72117;SDS011;59992;47.490;8.736;2022-10-20T07:04:38;24.60;;;13.00;;
72117;SDS011;59992;47.490;8.736;2022-10-20T07:07:26;24.00;;;12.60;;
72117;SDS011;59992;47.490;8.736;2022-10-20T07:10:15;22.80;;;12.40;;
72117;SDS011;59992;47.490;8.736;2022-10-20T07:13:03;27.50;;;12.90;;
72117;SDS011;59992;47.490;8.736;2022-10-20T07:15:52;25.50;;;12.50;;
72117;SDS011;59992;47.490;8.736;2022-10-20T07:18:40;24.10;;;13.10;;
72117;SDS011;59992;47.490;8.736;2022-10-20T07:21:29;25.70;;;13.60;;
72117;SDS011;59992;47.490;8.736;2022-10-20T07:24:17;24.80;;;13.20;;
72117;SDS011;59992;47.490;8.736;2022-10-20T07:27:06;27.20;;;14.00;;
72117;SDS011;59992;47.490;8.736;2022-10-20T07:29:54;27.30;;;13.10;;
72117;SDS011;59992;47.490;8.736;2022-10-20T07:32:42;26.00;;;12.90;;
72117;SDS011;59992;47.490;8.736;2022-10-20T07:35:30;25.60;;;12.40;;
72117;SDS011;59992;47.490;8.736;2022-10-20T07:38:18;23.10;;;12.30;;
72117;SDS011;59992;47.490;8.736;2022-10-20T07:41:06;24.80;;;12.40;;
72117;SDS011;59992;47.490;8.736;2022-10-20T07:43:54;23.00;;;11.90;;
72117;SDS011;59992;47.490;8.736;2022-10-20T07:46:43;24.30;;;11.20;;
72117;SDS011;59992;47.490;8.736;2022-10-20T07:49:31;21.60;;;11.80;;
72117;SDS011;59992;47.490;8.736;2022-10-20T07:52:20;30.30;;;12.40;;
72117;SDS011;59992;47.490;8.736;2022-10-20T07:55:08;25.60;;;12.70;;
72117;SDS011;59992;47.490;8.736;2022-10-20T07:57:56;23.70;;;12.10;;
72117;SDS011;59992;47.490;8.736;2022-10-20T08:00:44;29.20;;;14.60;;
72117;SDS011;59992;47.490;8.736;2022-10-20T08:03:32;24.40;;;12.50;;
72117;SDS011;59992;47.490;8.736;2022-10-20T08:06:21;30.00;;;13.40;;
72117;SDS011;59992;47.490;8.736;2022-10-20T08:09:09;25.40;;;12.50;;
72117;SDS011;59992;47.490;8.736;2022-10-20T08:11:57;21.80;;;12.20;;
72117;SDS011;59992;47.490;8.736;2022-10-20T08:14:45;27.10;;;13.50;;
72117;SDS011;59992;47.490;8.736;2022-10-20T08:17:33;21.30;;;12.60;;
72117;SDS011;59992;47.490;8.736;2022-10-20T08:20:21;23.10;;;12.40;;
72117;SDS011;59992;47.490;8.736;2022-10-20T08:23:10;23.60;;;12.10;;
72117;SDS011;59992;47.490;8.736;2022-10-20T08:25:58;23.60;;;12.50;;
72117;SDS011;59992;47.490;8.736;2022-10-20T08:28:46;22.90;;;12.40;;
72117;SDS011;59992;47.490;8.736;2022-10-20T08:31:34;25.70;;;12.80;;
72117;SDS011;59992;47.490;8.736;2022-10-20T08:34:23;24.50;;;12.70;;
72117;SDS011;59992;47.490;8.736;2022-10-20T08:37:11;22.10;;;11.80;;
72117;SDS011;59992;47.490;8.736;2022-10-20T08:39:59;24.90;;;12.80;;
72117;SDS011;59992;47.490;8.736;2022-10-20T08:42:47;25.80;;;12.20;;
72117;SDS011;59992;47.490;8.736;2022-10-20T08:45:36;26.60;;;12.90;;
72117;SDS011;59992;47.490;8.736;2022-10-20T08:48:26;23.10;;;12.30;;
72117;SDS011;59992;47.490;8.736;2022-10-20T08:51:18;22.60;;;12.10;;
72117;SDS011;59992;47.490;8.736;2022-10-20T08:54:11;21.40;;;11.80;;
72117;SDS011;59992;47.490;8.736;2022-10-20T08:57:02;23.40;;;11.00;;
72117;SDS011;59992;47.490;8.736;2022-10-20T09:00:06;25.50;;;12.30;;
72117;SDS011;59992;47.490;8.736;2022-10-20T09:03:01;23.00;;;12.40;;
72117;SDS011;59992;47.490;8.736;2022-10-20T09:06:06;25.70;;;14.20;;
72117;SDS011;59992;47.490;8.736;2022-10-20T09:09:02;26.00;;;14.50;;
72117;SDS011;59992;47.490;8.736;2022-10-20T09:11:50;24.50;;;14.40;;
72117;SDS011;59992;47.490;8.736;2022-10-20T09:14:50;22.70;;;12.80;;
72117;SDS011;59992;47.490;8.736;2022-10-20T09:17:38;21.10;;;11.30;;
72117;SDS011;59992;47.490;8.736;2022-10-20T09:20:31;18.50;;;11.00;;
72117;SDS011;59992;47.490;8.736;2022-10-20T09:23:28;22.50;;;11.70;;
72117;SDS011;59992;47.490;8.736;2022-10-20T09:26:21;19.30;;;11.80;;
72117;SDS011;59992;47.490;8.736;2022-10-20T09:29:20;21.80;;;11.80;;
72117;SDS011;59992;47.490;8.736;2022-10-20T09:32:23;18.00;;;11.60;;
72117;SDS011;59992;47.490;8.736;2022-10-20T09:35:23;21.40;;;12.00;;
72117;SDS011;59992;47.490;8.736;2022-10-20T09:38:16;26.50;;;13.30;;
72117;SDS011;59992;47.490;8.736;2022-10-20T09:41:10;25.60;;;12.50;;
72117;SDS011;59992;47.490;8.736;2022-10-20T09:44:03;21.00;;;12.40;;
72117;SDS011;59992;47.490;8.736;2022-10-20T09:46:54;20.40;;;10.90;;
72117;SDS011;59992;47.490;8.736;2022-10-20T09:49:42;22.80;;;12.10;;
72117;SDS011;59992;47.490;8.736;2022-10-20T09:52:33;25.70;;;12.40;;
72117;SDS011;59992;47.490;8.736;2022-10-20T09:55:34;21.70;;;11.60;;
72117;SDS011;59992;47.490;8.736;2022-10-20T09:58:28;21.40;;;10.40;;
72117;SDS011;59992;47.490;8.736;2022-10-20T10:01:18;22.30;;;11.50;;
72117;SDS011;59992;47.490;8.736;2022-10-20T10:04:09;19.80;;;10.00;;
72117;SDS011;59992;47.490;8.736;2022-10-20T10:07:28;26.30;;;11.30;;
72117;SDS011;59992;47.490;8.736;2022-10-20T10:10:22;19.30;;;11.00;;
72117;SDS011;59992;47.490;8.736;2022-10-20T10:13:22;20.30;;;11.70;;
72117;SDS011;59992;47.490;8.736;2022-10-20T10:16:13;22.70;;;11.50;;
72117;SDS011;59992;47.490;8.736;2022-10-20T10:19:03;19.40;;;11.40;;
72117;SDS011;59992;47.490;8.736;2022-10-20T10:21:53;18.90;;;10.20;;
72117;SDS011;59992;47.490;8.736;2022-10-20T10:24:43;14.90;;;8.20;;
72117;SDS011;59992;47.490;8.736;2022-10-20T10:27:34;21.20;;;10.70;;
72117;SDS011;59992;47.490;8.736;2022-10-20T10:30:25;17.60;;;10.80;;
72117;SDS011;59992;47.490;8.736;2022-10-20T10:33:22;20.80;;;10.50;;
72117;SDS011;59992;47.490;8.736;2022-10-20T10:36:14;25.80;;;10.80;;
72117;SDS011;59992;47.490;8.736;2022-10-20T10:39:14;23.70;;;10.90;;
72117;SDS011;59992;47.490;8.736;2022-10-20T10:42:04;19.20;;;10.90;;
72117;SDS011;59992;47.490;8.736;2022-10-20T10:45:07;19.90;;;10.40;;
72117;SDS011;59992;47.490;8.736;2022-10-20T10:51:26;16.60;;;8.90;;
72117;SDS011;59992;47.490;8.736;2022-10-20T10:54:27;16.60;;;10.30;;
72117;SDS011;59992;47.490;8.736;2022-10-20T10:57:28;21.90;;;9.20;;
72117;SDS011;59992;47.490;8.736;2022-10-20T11:00:25;20.50;;;9.80;;
72117;SDS011;59992;47.490;8.736;2022-10-20T11:03:28;19.70;;;10.70;;
72117;SDS011;59992;47.490;8.736;2022-10-20T11:06:32;21.90;;;9.70;;
72117;SDS011;59992;47.490;8.736;2022-10-20T11:09:29;18.10;;;9.30;;
72117;SDS011;59992;47.490;8.736;2022-10-20T11:12:25;22.10;;;10.20;;
72117;SDS011;59992;47.490;8.736;2022-10-20T11:15:34;16.90;;;9.60;;
72117;SDS011;59992;47.490;8.736;2022-10-20T11:18:40;16.90;;;8.90;;
72117;SDS011;59992;47.490;8.736;2022-10-20T11:21:40;16.20;;;9.20;;
72117;SDS011;59992;47.490;8.736;2022-10-20T11:24:41;15.30;;;8.10;;
72117;SDS011;59992;47.490;8.736;2022-10-20T11:27:38;17.80;;;8.80;;
72117;SDS011;59992;47.490;8.736;2022-10-20T11:30:27;20.40;;;8.90;;
72117;SDS011;59992;47.490;8.736;2022-10-20T11:33:20;17.50;;;8.20;;
72117;SDS011;59992;47.490;8.736;2022-10-20T11:36:15;15.10;;;7.10;;
72117;SDS011;59992;47.490;8.736;2022-10-20T11:39:07;12.40;;;6.80;;
72117;SDS011;59992;47.490;8.736;2022-10-20T11:42:09;15.40;;;7.60;;
72117;SDS011;59992;47.490;8.736;2022-10-20T11:45:12;11.80;;;7.30;;
72117;SDS011;59992;47.490;8.736;2022-10-20T11:48:19;12.80;;;6.60;;
72117;SDS011;59992;47.490;8.736;2022-10-20T11:58:07;15.70;;;7.40;;
72117;SDS011;59992;47.490;8.736;2022-10-20T12:01:09;14.30;;;7.20;;
72117;SDS011;59992;47.490;8.736;2022-10-20T12:04:26;12.80;;;6.80;;
72117;SDS011;59992;47.490;8.736;2022-10-20T12:07:29;16.60;;;7.30;;
72117;SDS011;59992;47.490;8.736;2022-10-20T12:10:27;15.10;;;7.20;;
72117;SDS011;59992;47.490;8.736;2022-10-20T12:13:29;17.50;;;8.40;;
72117;SDS011;59992;47.490;8.736;2022-10-20T12:19:50;17.90;;;7.90;;
72117;SDS011;59992;47.490;8.736;2022-10-20T12:22:40;18.90;;;6.90;;
72117;SDS011;59992;47.490;8.736;2022-10-20T12:25:36;16.50;;;7.70;;
72117;SDS011;59992;47.490;8.736;2022-10-20T12:28:32;14.70;;;8.40;;
72117;SDS011;59992;47.490;8.736;2022-10-20T12:34:44;17.90;;;7.70;;
72117;SDS011;59992;47.490;8.736;2022-10-20T12:37:33;15.60;;;6.90;;
72117;SDS011;59992;47.490;8.736;2022-10-20T12:40:24;17.20;;;7.40;;
72117;SDS011;59992;47.490;8.736;2022-10-20T12:43:23;15.20;;;7.20;;
72117;SDS011;59992;47.490;8.736;2022-10-20T12:46:24;17.10;;;7.20;;
72117;SDS011;59992;47.490;8.736;2022-10-20T12:49:19;16.00;;;6.60;;
72117;SDS011;59992;47.490;8.736;2022-10-20T12:52:16;13.80;;;6.70;;
72117;SDS011;59992;47.490;8.736;2022-10-20T12:55:07;15.80;;;7.30;;
72117;SDS011;59992;47.490;8.736;2022-10-20T12:58:10;14.80;;;7.50;;
72117;SDS011;59992;47.490;8.736;2022-10-20T13:01:11;17.70;;;7.30;;
72117;SDS011;59992;47.490;8.736;2022-10-20T13:04:00;13.10;;;7.00;;
72117;SDS011;59992;47.490;8.736;2022-10-20T13:06:49;11.70;;;7.70;;
72117;SDS011;59992;47.490;8.736;2022-10-20T13:12:42;21.50;;;7.40;;
72117;SDS011;59992;47.490;8.736;2022-10-20T13:15:33;18.10;;;7.80;;
72117;SDS011;59992;47.490;8.736;2022-10-20T13:18:25;20.20;;;10.40;;
72117;SDS011;59992;47.490;8.736;2022-10-20T13:21:21;17.10;;;9.50;;
72117;SDS011;59992;47.490;8.736;2022-10-20T13:24:15;19.70;;;10.30;;
72117;SDS011;59992;47.490;8.736;2022-10-20T13:27:08;20.80;;;10.10;;
72117;SDS011;59992;47.490;8.736;2022-10-20T13:29:56;22.20;;;11.30;;
72117;SDS011;59992;47.490;8.736;2022-10-20T13:32:46;24.30;;;12.30;;
72117;SDS011;59992;47.490;8.736;2022-10-20T13:35:45;20.00;;;11.60;;
72117;SDS011;59992;47.490;8.736;2022-10-20T13:38:41;21.30;;;11.40;;
72117;SDS011;59992;47.490;8.736;2022-10-20T13:41:39;22.90;;;11.90;;
72117;SDS011;59992;47.490;8.736;2022-10-20T13:44:41;21.30;;;11.50;;
72117;SDS011;59992;47.490;8.736;2022-10-20T13:47:47;19.90;;;11.50;;
72117;SDS011;59992;47.490;8.736;2022-10-20T13:50:42;17.30;;;9.70;;
72117;SDS011;59992;47.490;8.736;2022-10-20T13:53:36;22.10;;;11.80;;
72117;SDS011;59992;47.490;8.736;2022-10-20T13:56:29;21.60;;;11.40;;
72117;SDS011;59992;47.490;8.736;2022-10-20T13:59:21;20.10;;;12.10;;
72117;SDS011;59992;47.490;8.736;2022-10-20T14:02:21;21.30;;;11.60;;
72117;SDS011;59992;47.490;8.736;2022-10-20T14:05:11;22.60;;;11.80;;
72117;SDS011;59992;47.490;8.736;2022-10-20T14:08:00;20.40;;;12.00;;
72117;SDS011;59992;47.490;8.736;2022-10-20T14:10:49;30.40;;;10.90;;
72117;SDS011;59992;47.490;8.736;2022-10-20T14:13:39;23.50;;;11.80;;
72117;SDS011;59992;47.490;8.736;2022-10-20T14:16:29;24.80;;;11.30;;
72117;SDS011;59992;47.490;8.736;2022-10-20T14:19:19;22.10;;;11.40;;
72117;SDS011;59992;47.490;8.736;2022-10-20T14:22:16;22.50;;;11.10;;
72117;SDS011;59992;47.490;8.736;2022-10-20T14:25:08;23.10;;;12.00;;
72117;SDS011;59992;47.490;8.736;2022-10-20T14:27:57;24.20;;;11.70;;
72117;SDS011;59992;47.490;8.736;2022-10-20T14:30:46;22.10;;;11.20;;
72117;SDS011;59992;47.490;8.736;2022-10-20T14:33:36;21.70;;;12.50;;
72117;SDS011;59992;47.490;8.736;2022-10-20T14:36:29;24.50;;;11.90;;
72117;SDS011;59992;47.490;8.736;2022-10-20T14:39:20;26.00;;;12.10;;
72117;SDS011;59992;47.490;8.736;2022-10-20T14:42:18;26.40;;;12.80;;
72117;SDS011;59992;47.490;8.736;2022-10-20T14:45:16;20.20;;;11.40;;
72117;SDS011;59992;47.490;8.736;2022-10-20T14:48:06;21.80;;;11.20;;
72117;SDS011;59992;47.490;8.736;2022-10-20T14:51:02;22.50;;;11.50;;
72117;SDS011;59992;47.490;8.736;2022-10-20T14:54:24;25.10;;;12.20;;
72117;SDS011;59992;47.490;8.736;2022-10-20T14:57:27;24.20;;;12.50;;
72117;SDS011;59992;47.490;8.736;2022-10-20T15:03:26;23.60;;;12.40;;
72117;SDS011;59992;47.490;8.736;2022-10-20T15:06:15;22.80;;;11.70;;
72117;SDS011;59992;47.490;8.736;2022-10-20T15:09:04;22.90;;;12.10;;
72117;SDS011;59992;47.490;8.736;2022-10-20T15:12:04;24.80;;;12.10;;
72117;SDS011;59992;47.490;8.736;2022-10-20T15:14:58;28.70;;;11.70;;
72117;SDS011;59992;47.490;8.736;2022-10-20T15:17:52;24.40;;;11.70;;
72117;SDS011;59992;47.490;8.736;2022-10-20T15:20:56;28.10;;;10.90;;
72117;SDS011;59992;47.490;8.736;2022-10-20T15:23:44;18.80;;;10.90;;
72117;SDS011;59992;47.490;8.736;2022-10-20T15:26:35;21.60;;;10.40;;
72117;SDS011;59992;47.490;8.736;2022-10-20T15:29:24;25.70;;;10.20;;
72117;SDS011;59992;47.490;8.736;2022-10-20T15:32:14;19.80;;;9.70;;
72117;SDS011;59992;47.490;8.736;2022-10-20T15:35:04;23.20;;;9.60;;
72117;SDS011;59992;47.490;8.736;2022-10-20T15:37:57;16.90;;;9.10;;
72117;SDS011;59992;47.490;8.736;2022-10-20T15:40:45;23.80;;;9.10;;
72117;SDS011;59992;47.490;8.736;2022-10-20T15:43:33;20.20;;;9.40;;
72117;SDS011;59992;47.490;8.736;2022-10-20T15:46:21;18.80;;;8.30;;
72117;SDS011;59992;47.490;8.736;2022-10-20T15:49:09;30.60;;;10.00;;
72117;SDS011;59992;47.490;8.736;2022-10-20T15:51:57;17.70;;;8.10;;
72117;SDS011;59992;47.490;8.736;2022-10-20T15:54:46;17.60;;;8.60;;
72117;SDS011;59992;47.490;8.736;2022-10-20T15:57:35;15.70;;;7.80;;
72117;SDS011;59992;47.490;8.736;2022-10-20T16:00:23;17.20;;;7.90;;
72117;SDS011;59992;47.490;8.736;2022-10-20T16:03:14;20.60;;;7.90;;
72117;SDS011;59992;47.490;8.736;2022-10-20T16:06:04;18.10;;;8.20;;
72117;SDS011;59992;47.490;8.736;2022-10-20T16:08:52;21.60;;;7.90;;
72117;SDS011;59992;47.490;8.736;2022-10-20T16:11:40;17.50;;;8.20;;
72117;SDS011;59992;47.490;8.736;2022-10-20T16:14:28;19.30;;;8.50;;
72117;SDS011;59992;47.490;8.736;2022-10-20T16:17:19;20.10;;;9.00;;
72117;SDS011;59992;47.490;8.736;2022-10-20T16:20:09;24.00;;;8.80;;
72117;SDS011;59992;47.490;8.736;2022-10-20T16:22:56;20.80;;;8.50;;
72117;SDS011;59992;47.490;8.736;2022-10-20T16:25:45;21.60;;;8.40;;
72117;SDS011;59992;47.490;8.736;2022-10-20T16:28:33;17.00;;;8.00;;
72117;SDS011;59992;47.490;8.736;2022-10-20T16:31:21;20.40;;;7.60;;
72117;SDS011;59992;47.490;8.736;2022-10-20T16:34:10;22.70;;;8.60;;
72117;SDS011;59992;47.490;8.736;2022-10-20T16:36:58;14.70;;;7.60;;
72117;SDS011;59992;47.490;8.736;2022-10-20T16:39:46;21.40;;;8.20;;
72117;SDS011;59992;47.490;8.736;2022-10-20T16:42:35;24.40;;;9.80;;
72117;SDS011;59992;47.490;8.736;2022-10-20T16:45:24;21.50;;;7.90;;
72117;SDS011;59992;47.490;8.736;2022-10-20T16:48:14;17.40;;;8.50;;
72117;SDS011;59992;47.490;8.736;2022-10-20T16:51:03;22.20;;;9.20;;
72117;SDS011;59992;47.490;8.736;2022-10-20T16:53:52;18.40;;;9.30;;
72117;SDS011;59992;47.490;8.736;2022-10-20T16:56:41;19.50;;;9.10;;
72117;SDS011;59992;47.490;8.736;2022-10-20T16:59:31;19.80;;;9.80;;
72117;SDS011;59992;47.490;8.736;2022-10-20T17:02:19;18.80;;;9.50;;
72117;SDS011;59992;47.490;8.736;2022-10-20T17:05:09;23.50;;;10.20;;
72117;SDS011;59992;47.490;8.736;2022-10-20T17:07:57;21.50;;;10.60;;
72117;SDS011;59992;47.490;8.736;2022-10-20T17:10:45;21.60;;;10.60;;
72117;SDS011;59992;47.490;8.736;2022-10-20T17:13:34;22.10;;;10.10;;